createdAt,value
2022-09-12T00:00:42.657Z,7.90
2022-09-12T00:03:12.941Z,8.90
2022-09-12T00:05:47.196Z,9.00
2022-09-12T00:08:17.611Z,7.80
2022-09-12T00:10:47.913Z,7.50
2022-09-12T00:13:18.203Z,8.10
2022-09-12T00:15:48.513Z,8.50
2022-09-12T00:18:19.604Z,7.70
2022-09-12T00:20:50.205Z,8.50
2022-09-12T00:23:20.708Z,8.80
2022-09-12T00:25:51.988Z,8.20
2022-09-12T00:28:22.275Z,7.30
2022-09-12T00:30:52.604Z,7.80
2022-09-12T00:33:22.971Z,8.90
2022-09-12T00:35:54.122Z,8.30
2022-09-12T00:38:24.518Z,8.50
2022-09-12T00:40:54.793Z,9.20
2022-09-12T00:43:40.476Z,8.60
2022-09-12T00:46:17.699Z,8.60
2022-09-12T00:48:51.369Z,8.90
2022-09-12T00:51:22.033Z,9.20
2022-09-12T00:53:53.979Z,8.10
2022-09-12T00:56:24.661Z,8.50
2022-09-12T00:58:58.864Z,8.50
2022-09-12T01:01:32.358Z,9.00
2022-09-12T01:04:03.932Z,8.30
2022-09-12T01:06:37.399Z,8.20
2022-09-12T01:09:08.522Z,8.40
2022-09-12T01:11:40.095Z,8.90
2022-09-12T01:14:11.462Z,9.70
2022-09-12T01:16:42.345Z,8.70
2022-09-12T01:19:38.097Z,8.50
2022-09-12T01:22:19.178Z,7.70
2022-09-12T01:25:03.195Z,8.50
2022-09-12T01:27:55.690Z,9.00
2022-09-12T01:30:46.457Z,8.50
2022-09-12T01:33:40.102Z,8.90
2022-09-12T01:36:33.513Z,7.50
2022-09-12T01:41:43.490Z,8.90
2022-09-12T01:44:19.630Z,8.10
2022-09-12T01:46:55.795Z,10.40
2022-09-12T01:49:28.239Z,9.20
2022-09-12T01:52:04.483Z,8.60
2022-09-12T01:54:38.917Z,8.80
2022-09-12T01:57:13.943Z,9.10
2022-09-12T01:59:46.518Z,9.20
2022-09-12T02:02:18.549Z,9.90
2022-09-12T02:04:52.721Z,9.70
2022-09-12T02:07:27.365Z,9.30
2022-09-12T02:10:04.115Z,9.70
2022-09-12T02:12:41.184Z,10.00
2022-09-12T02:15:12.594Z,10.60
2022-09-12T02:17:45.429Z,11.10
2022-09-12T02:20:44.021Z,10.10
2022-09-12T02:23:17.321Z,10.20
2022-09-12T02:25:49.893Z,10.50
2022-09-12T02:28:24.745Z,10.90
2022-09-12T02:31:01.468Z,11.20
2022-09-12T02:33:36.995Z,10.50
2022-09-12T02:36:14.345Z,10.50
2022-09-12T02:38:47.217Z,10.50
2022-09-12T02:43:47.606Z,11.00
2022-09-12T02:46:21.640Z,10.90
2022-09-12T02:48:52.004Z,10.30
2022-09-12T02:51:23.771Z,11.10
2022-09-12T02:53:54.524Z,9.80
2022-09-12T02:56:28.926Z,11.10
2022-09-12T02:59:01.863Z,10.30
2022-09-12T03:01:50.489Z,10.50
2022-09-12T03:04:38.804Z,10.80
2022-09-12T03:07:15.274Z,10.40
2022-09-12T03:09:49.219Z,10.80
2022-09-12T03:12:30.379Z,10.60
2022-09-12T03:15:27.093Z,10.70
2022-09-12T03:18:09.072Z,10.70
2022-09-12T03:20:50.897Z,11.20
2022-09-12T03:23:27.668Z,10.90
2022-09-12T03:26:00.403Z,10.20
2022-09-12T03:28:31.286Z,10.70
2022-09-12T03:31:01.719Z,10.90
2022-09-12T03:33:32.057Z,10.30
2022-09-12T03:36:02.581Z,10.70
2022-09-12T03:38:32.983Z,10.10
2022-09-12T03:41:03.487Z,9.80
2022-09-12T03:43:33.873Z,11.20
2022-09-12T03:46:04.226Z,10.40
2022-09-12T03:48:34.703Z,11.10
2022-09-12T03:51:05.921Z,10.70
2022-09-12T03:53:36.701Z,11.00
2022-09-12T03:56:10.821Z,11.00
2022-09-12T03:58:41.763Z,10.00
2022-09-12T04:01:13.834Z,10.30
2022-09-12T04:03:44.393Z,10.50
2022-09-12T04:06:16.163Z,10.90
2022-09-12T04:08:51.394Z,11.60
2022-09-12T04:11:23.071Z,11.10
2022-09-12T04:13:53.623Z,11.20
2022-09-12T04:16:24.177Z,11.30
2022-09-12T04:18:55.223Z,10.80
2022-09-12T04:21:25.631Z,11.80
2022-09-12T04:23:55.907Z,12.20
2022-09-12T04:26:26.401Z,12.00
2022-09-12T04:28:57.587Z,11.60
2022-09-12T04:31:28.225Z,12.10
2022-09-12T04:33:59.481Z,11.60
2022-09-12T04:36:31.102Z,11.30
2022-09-12T04:39:02.156Z,11.50
2022-09-12T04:41:34.364Z,11.90
2022-09-12T04:44:06.635Z,11.30
2022-09-12T04:46:39.600Z,10.30
2022-09-12T04:49:10.399Z,11.20
2022-09-12T04:51:42.300Z,12.60
2022-09-12T04:54:15.081Z,11.40
2022-09-12T04:56:48.885Z,11.00
2022-09-12T04:59:20.430Z,10.80
2022-09-12T05:01:51.219Z,11.60
2022-09-12T05:04:21.762Z,12.20
2022-09-12T05:06:52.271Z,11.00
2022-09-12T05:09:22.712Z,10.70
2022-09-12T05:12:04.195Z,10.80
2022-09-12T05:14:35.676Z,11.00
2022-09-12T05:17:06.854Z,12.10
2022-09-12T05:19:37.694Z,11.60
2022-09-12T05:22:08.146Z,11.00
2022-09-12T05:24:46.175Z,11.20
2022-09-12T05:27:19.067Z,11.30
2022-09-12T05:29:49.415Z,11.10
2022-09-12T05:32:19.835Z,10.00
2022-09-12T05:34:50.879Z,10.50
2022-09-12T05:37:21.195Z,10.80
2022-09-12T05:39:52.201Z,11.10
2022-09-12T05:42:23.465Z,12.10
2022-09-12T05:44:53.975Z,11.30
2022-09-12T05:47:24.307Z,10.70
2022-09-12T05:49:54.775Z,9.60
2022-09-12T05:52:25.063Z,10.20
2022-09-12T05:54:55.361Z,10.80
2022-09-12T05:57:26.117Z,11.50
2022-09-12T05:59:56.412Z,10.40
2022-09-12T06:02:26.743Z,9.70
2022-09-12T06:04:57.765Z,10.60
2022-09-12T06:07:28.126Z,8.30
2022-09-12T06:09:59.432Z,8.00
2022-09-12T06:12:30.868Z,9.00
2022-09-12T06:15:01.166Z,8.20
2022-09-12T06:17:31.514Z,7.80
2022-09-12T06:20:01.853Z,6.70
2022-09-12T06:22:32.231Z,6.70
2022-09-12T06:25:02.995Z,8.20
2022-09-12T06:27:33.372Z,7.90
2022-09-12T06:30:04.163Z,7.50
2022-09-12T06:32:34.825Z,7.40
2022-09-12T06:35:05.743Z,7.20
2022-09-12T06:37:36.132Z,7.40
2022-09-12T06:40:10.125Z,6.60
2022-09-12T06:42:40.480Z,6.90
2022-09-12T06:45:12.481Z,7.30
2022-09-12T06:47:42.819Z,6.60
2022-09-12T06:50:13.349Z,6.70
2022-09-12T06:52:44.415Z,6.80
2022-09-12T06:55:18.919Z,6.30
2022-09-12T06:57:50.673Z,6.80
2022-09-12T07:00:21.352Z,6.70
2022-09-12T07:02:52.583Z,6.50
2022-09-12T07:05:22.936Z,6.30
2022-09-12T07:07:53.321Z,5.90
2022-09-12T07:10:23.732Z,6.00
2022-09-12T07:12:54.393Z,6.50
2022-09-12T07:15:24.694Z,6.60
2022-09-12T07:17:54.982Z,5.80
2022-09-12T07:20:25.415Z,6.00
2022-09-12T07:22:55.726Z,6.80
2022-09-12T07:25:26.131Z,7.50
2022-09-12T07:27:56.525Z,7.10
2022-09-12T07:30:26.940Z,7.60
2022-09-12T07:32:57.355Z,6.80
2022-09-12T07:35:27.720Z,7.40
2022-09-12T07:37:58.088Z,7.20
2022-09-12T07:40:28.420Z,7.70
2022-09-12T07:42:58.709Z,8.00
2022-09-12T07:45:29.715Z,7.30
2022-09-12T07:48:00.110Z,7.70
2022-09-12T07:50:30.444Z,7.40
2022-09-12T07:53:00.842Z,7.70
2022-09-12T07:55:31.237Z,8.50
2022-09-12T07:58:01.584Z,7.60
2022-09-12T08:00:35.767Z,7.00
2022-09-12T08:03:07.235Z,7.30
2022-09-12T08:05:37.484Z,8.50
2022-09-12T08:08:08.007Z,9.40
2022-09-12T08:10:38.298Z,8.30
2022-09-12T08:13:10.743Z,8.80
2022-09-12T08:15:41.284Z,8.20
2022-09-12T08:18:11.592Z,8.60
2022-09-12T08:20:41.993Z,8.60
2022-09-12T08:23:12.539Z,7.90
2022-09-12T08:25:42.866Z,8.20
2022-09-12T08:28:13.150Z,9.30
2022-09-12T08:30:43.465Z,8.90
2022-09-12T08:33:13.866Z,8.20
2022-09-12T08:35:44.109Z,8.30
2022-09-12T08:38:14.476Z,9.80
2022-09-12T08:40:51.383Z,7.70
2022-09-12T08:43:31.061Z,8.30
2022-09-12T08:46:05.938Z,9.00
2022-09-12T08:48:36.376Z,7.90
2022-09-12T08:51:07.092Z,8.90
2022-09-12T08:53:38.295Z,9.10
2022-09-12T08:56:11.401Z,9.60
2022-09-12T08:58:43.427Z,9.10
2022-09-12T09:01:19.772Z,9.50
2022-09-12T09:04:03.968Z,10.00
2022-09-12T09:06:52.841Z,8.60
2022-09-12T09:09:30.837Z,9.20
2022-09-12T09:12:07.873Z,9.00
2022-09-12T09:14:56.778Z,9.50
2022-09-12T09:17:30.268Z,8.60
2022-09-12T09:20:05.416Z,9.10
2022-09-12T09:22:41.479Z,10.30
2022-09-12T09:25:19.714Z,9.80
2022-09-12T09:27:57.635Z,9.30
2022-09-12T09:30:28.615Z,8.80
2022-09-12T09:33:01.308Z,8.80
2022-09-12T09:35:42.219Z,7.60
2022-09-12T09:38:23.489Z,8.40
2022-09-12T09:41:01.914Z,8.00
2022-09-12T09:43:32.589Z,8.50
2022-09-12T09:46:03.269Z,7.60
2022-09-12T09:48:35.820Z,8.80
2022-09-12T09:51:09.182Z,8.80
2022-09-12T09:53:46.122Z,9.30
2022-09-12T09:56:26.099Z,8.40
2022-09-12T09:58:56.752Z,8.80
2022-09-12T10:01:27.399Z,10.30
2022-09-12T10:03:58.501Z,9.10
2022-09-12T10:06:34.214Z,8.40
2022-09-12T10:09:18.269Z,8.50
2022-09-12T10:11:49.080Z,8.60
2022-09-12T10:14:38.394Z,8.00
2022-09-12T10:17:34.145Z,7.80
2022-09-12T10:20:22.071Z,8.40
2022-09-12T10:22:52.686Z,8.70
2022-09-12T10:25:23.387Z,9.00
2022-09-12T10:27:59.269Z,8.40
2022-09-12T10:30:30.107Z,8.10
2022-09-12T10:33:07.541Z,8.40
2022-09-12T10:35:48.738Z,7.80
2022-09-12T10:38:22.484Z,7.60
2022-09-12T10:41:00.427Z,7.10
2022-09-12T10:43:35.797Z,6.70
2022-09-12T10:46:23.583Z,8.70
2022-09-12T10:49:13.340Z,8.00
2022-09-12T10:51:43.804Z,6.60
2022-09-12T10:54:15.420Z,7.80
2022-09-12T10:56:56.527Z,6.90
2022-09-12T10:59:37.609Z,7.40
2022-09-12T11:02:19.375Z,7.10
2022-09-12T11:04:58.659Z,7.80
2022-09-12T11:07:40.627Z,8.20
2022-09-12T11:12:52.487Z,8.90
2022-09-12T11:15:39.080Z,8.10
2022-09-12T11:18:17.040Z,7.30
2022-09-12T11:21:01.921Z,8.00
2022-09-12T11:23:56.346Z,7.90
2022-09-12T11:26:40.031Z,7.20
2022-09-12T11:29:17.244Z,8.50
2022-09-12T11:31:56.745Z,7.80
2022-09-12T11:34:34.167Z,6.60
2022-09-12T11:37:18.060Z,8.40
2022-09-12T11:39:53.379Z,8.30
2022-09-12T11:42:29.684Z,7.80
2022-09-12T11:45:04.743Z,8.30
2022-09-12T11:47:36.660Z,7.80
2022-09-12T11:50:20.215Z,8.50
2022-09-12T11:52:50.784Z,9.10
2022-09-12T11:55:23.507Z,8.80
2022-09-12T11:57:55.812Z,9.20
2022-09-12T12:00:29.969Z,7.90
2022-09-12T12:03:04.415Z,8.80
2022-09-12T12:05:38.635Z,8.80
2022-09-12T12:08:09.609Z,8.20
2022-09-12T12:10:42.127Z,7.00
2022-09-12T12:13:19.742Z,6.50
2022-09-12T12:15:52.218Z,6.80
2022-09-12T12:18:25.224Z,7.10
2022-09-12T12:20:56.527Z,7.10
2022-09-12T12:23:30.525Z,7.10
2022-09-12T12:26:02.224Z,6.50
2022-09-12T12:28:59.716Z,5.70
2022-09-12T12:31:30.179Z,6.20
2022-09-12T12:34:23.884Z,5.70
2022-09-12T12:36:54.208Z,5.60
2022-09-12T12:40:05.570Z,5.90
2022-09-12T12:43:31.419Z,6.70
2022-09-12T12:46:15.682Z,7.30
2022-09-12T12:48:58.886Z,6.50
2022-09-12T12:51:41.052Z,6.10
2022-09-12T12:54:31.939Z,5.50
2022-09-12T12:57:16.364Z,6.00
2022-09-12T12:59:51.688Z,6.00
2022-09-12T13:02:25.716Z,5.60
2022-09-12T13:04:56.602Z,6.30
2022-09-12T13:07:32.142Z,5.90
2022-09-12T13:10:03.200Z,5.90
2022-09-12T13:15:04.716Z,5.40
2022-09-12T13:17:40.986Z,5.80
2022-09-12T13:20:28.339Z,5.40
2022-09-12T13:23:00.197Z,5.60
2022-09-12T13:25:32.916Z,5.10
2022-09-12T13:28:15.846Z,5.20
2022-09-12T13:30:48.351Z,5.50
2022-09-12T13:33:23.063Z,5.30
2022-09-12T13:36:08.557Z,5.30
2022-09-12T13:38:47.884Z,5.50
2022-09-12T13:41:37.136Z,5.00
2022-09-12T13:44:13.175Z,4.90
2022-09-12T13:46:44.199Z,5.10
2022-09-12T13:49:21.890Z,5.40
2022-09-12T13:51:59.951Z,5.00
2022-09-12T13:54:30.541Z,5.30
2022-09-12T13:57:00.918Z,5.40
2022-09-12T13:59:31.249Z,5.30
2022-09-12T14:02:01.616Z,5.40
2022-09-12T14:04:50.228Z,5.30
2022-09-12T14:07:22.282Z,5.80
2022-09-12T14:09:58.096Z,5.20
2022-09-12T14:12:32.366Z,5.60
2022-09-12T14:15:03.019Z,5.00
2022-09-12T14:17:37.139Z,4.80
2022-09-12T14:20:10.317Z,5.30
2022-09-12T14:22:41.609Z,4.80
2022-09-12T14:25:17.106Z,5.00
2022-09-12T14:27:50.789Z,5.10
2022-09-12T14:30:26.693Z,4.20
2022-09-12T14:33:20.814Z,4.80
2022-09-12T14:35:52.188Z,4.90
2022-09-12T14:38:25.892Z,4.70
2022-09-12T14:41:04.339Z,5.10
2022-09-12T14:51:08.616Z,5.10
2022-09-12T14:53:40.482Z,4.60
2022-09-12T14:56:12.684Z,4.60
2022-09-12T14:58:43.776Z,4.50
2022-09-12T15:01:27.668Z,4.60
2022-09-12T15:03:58.592Z,5.00
2022-09-12T15:06:31.986Z,4.70
2022-09-12T15:09:06.274Z,4.70
2022-09-12T15:11:36.606Z,4.90
2022-09-12T15:14:15.580Z,5.40
2022-09-12T15:16:46.013Z,4.70
2022-09-12T15:19:16.622Z,4.50
2022-09-12T15:21:46.946Z,4.40
2022-09-12T15:24:17.223Z,4.50
2022-09-12T15:26:47.498Z,5.00
2022-09-12T15:29:17.870Z,4.50
2022-09-12T15:31:49.933Z,4.40
2022-09-12T15:34:20.516Z,4.60
2022-09-12T15:36:50.860Z,4.30
2022-09-12T15:39:21.118Z,5.00
2022-09-12T15:41:51.804Z,4.60
2022-09-12T15:44:23.547Z,4.20
2022-09-12T15:46:54.351Z,4.70
2022-09-12T15:49:24.741Z,4.50
2022-09-12T15:51:55.117Z,4.20
2022-09-12T15:54:25.927Z,4.40
2022-09-12T15:56:56.279Z,4.70
2022-09-12T15:59:26.812Z,4.00
2022-09-12T16:01:57.331Z,4.50
2022-09-12T16:04:30.130Z,4.10
2022-09-12T16:07:00.608Z,4.50
2022-09-12T16:09:30.976Z,4.30
2022-09-12T16:12:01.610Z,4.30
2022-09-12T16:14:32.072Z,4.30
2022-09-12T16:17:03.047Z,4.30
2022-09-12T16:19:33.448Z,3.70
2022-09-12T16:22:03.927Z,5.00
2022-09-12T16:24:34.424Z,4.10
2022-09-12T16:27:04.938Z,4.10
2022-09-12T16:29:36.149Z,4.30
2022-09-12T16:32:07.307Z,4.40
2022-09-12T16:34:37.707Z,4.10
2022-09-12T16:37:08.115Z,4.50
2022-09-12T16:39:38.710Z,4.20
2022-09-12T16:42:09.343Z,4.50
2022-09-12T16:44:40.146Z,4.60
2022-09-12T16:47:10.463Z,4.70
2022-09-12T16:49:40.846Z,4.60
2022-09-12T16:52:12.617Z,4.30
2022-09-12T16:54:43.165Z,4.60
2022-09-12T16:57:13.577Z,4.90
2022-09-12T16:59:43.965Z,4.50
2022-09-12T17:02:15.338Z,4.40
2022-09-12T17:04:45.808Z,4.10
2022-09-12T17:07:16.527Z,4.20
2022-09-12T17:09:48.411Z,4.10
2022-09-12T17:12:24.820Z,4.00
2022-09-12T17:14:55.198Z,4.50
2022-09-12T17:17:25.553Z,4.00
2022-09-12T17:19:56.011Z,3.80
2022-09-12T17:22:26.549Z,3.50
2022-09-12T17:24:56.952Z,4.80
2022-09-12T17:27:27.301Z,4.00
2022-09-12T17:29:57.779Z,3.90
2022-09-12T17:32:28.171Z,3.70
2022-09-12T17:34:58.637Z,3.90
2022-09-12T17:37:28.993Z,3.90
2022-09-12T17:39:59.553Z,4.00
2022-09-12T17:42:29.912Z,4.10
2022-09-12T17:45:02.009Z,3.80
2022-09-12T17:47:36.049Z,4.40
2022-09-12T17:50:30.346Z,4.00
2022-09-12T17:52:57.763Z,3.40
2022-09-12T17:55:31.990Z,4.10
2022-09-12T17:58:02.640Z,4.20
2022-09-12T18:01:06.915Z,4.30
2022-09-12T18:03:37.412Z,4.10
2022-09-12T18:06:09.041Z,4.20
2022-09-12T18:08:39.568Z,4.00
2022-09-12T18:11:10.404Z,3.90
2022-09-12T18:13:41.230Z,4.10
2022-09-12T18:16:13.684Z,3.90
2022-09-12T18:18:44.175Z,4.40
2022-09-12T18:21:14.934Z,4.30
2022-09-12T18:23:45.709Z,4.60
2022-09-12T18:26:16.542Z,4.40
2022-09-12T18:28:47.174Z,3.80
2022-09-12T18:31:19.321Z,4.30
2022-09-12T18:33:50.243Z,3.80
2022-09-12T18:36:22.362Z,3.80
2022-09-12T18:38:52.722Z,4.20
2022-09-12T18:41:24.850Z,4.00
2022-09-12T18:43:58.521Z,4.30
2022-09-12T18:46:29.967Z,4.00
2022-09-12T18:49:01.309Z,3.90
2022-09-12T18:51:34.636Z,4.20
2022-09-12T18:54:07.106Z,4.00
2022-09-12T18:56:39.420Z,4.20
2022-09-12T18:59:10.249Z,4.50
2022-09-12T19:01:41.353Z,4.40
2022-09-12T19:04:12.013Z,3.70
2022-09-12T19:06:44.250Z,3.80
2022-09-12T19:09:16.453Z,3.80
2022-09-12T19:11:49.608Z,4.10
2022-09-12T19:14:22.531Z,4.00
2022-09-12T19:16:53.239Z,3.80
2022-09-12T19:19:23.975Z,4.20
2022-09-12T19:21:54.403Z,3.80
2022-09-12T19:24:25.304Z,3.90
2022-09-12T19:26:55.679Z,3.70
2022-09-12T19:29:26.029Z,3.80
2022-09-12T19:31:56.538Z,3.60
2022-09-12T19:34:28.008Z,3.60
2022-09-12T19:36:59.387Z,4.00
2022-09-12T19:39:30.045Z,3.80
2022-09-12T19:42:00.335Z,3.10
2022-09-12T19:44:32.857Z,3.40
2022-09-12T19:47:04.603Z,3.90
2022-09-12T19:49:35.044Z,3.90
2022-09-12T19:52:05.598Z,4.00
2022-09-12T19:54:35.856Z,3.50
2022-09-12T19:57:06.558Z,3.40
2022-09-12T19:59:36.941Z,3.60
2022-09-12T20:02:07.536Z,3.70
2022-09-12T20:04:39.019Z,3.60
2022-09-12T20:07:09.441Z,3.50
2022-09-12T20:09:39.840Z,4.10
2022-09-12T20:12:10.364Z,3.90
2022-09-12T20:14:40.738Z,4.30
2022-09-12T20:17:11.239Z,3.80
2022-09-12T20:19:41.549Z,3.70
2022-09-12T20:22:11.943Z,3.80
2022-09-12T20:24:42.385Z,3.70
2022-09-12T20:27:12.693Z,4.00
2022-09-12T20:29:43.227Z,4.00
2022-09-12T20:32:13.575Z,3.90
2022-09-12T20:34:43.961Z,3.90
2022-09-12T20:37:14.499Z,4.20
2022-09-12T20:39:47.887Z,4.40
2022-09-12T20:42:21.011Z,4.10
2022-09-12T20:44:52.466Z,3.80
2022-09-12T20:47:22.852Z,4.10
2022-09-12T20:49:53.362Z,4.30
2022-09-12T20:52:23.697Z,4.10
2022-09-12T20:54:53.999Z,4.70
2022-09-12T20:57:24.715Z,4.90
2022-09-12T20:59:55.003Z,4.80
2022-09-12T21:02:26.980Z,4.60
2022-09-12T21:04:57.736Z,4.60
2022-09-12T21:07:28.058Z,5.40
2022-09-12T21:09:58.523Z,4.50
2022-09-12T21:12:29.653Z,4.70
2022-09-12T21:15:00.299Z,5.00
2022-09-12T21:17:30.641Z,4.90
2022-09-12T21:20:00.908Z,4.90
2022-09-12T21:22:32.211Z,5.00
2022-09-12T21:25:02.596Z,5.10
2022-09-12T21:27:32.907Z,4.80
2022-09-12T21:30:05.215Z,5.40
2022-09-12T21:32:36.692Z,5.50
2022-09-12T21:35:08.418Z,5.80
2022-09-12T21:37:38.825Z,5.80
2022-09-12T21:40:11.587Z,5.30
2022-09-12T21:45:12.118Z,5.50
2022-09-12T21:47:42.512Z,5.40
2022-09-12T21:50:13.416Z,5.00
2022-09-12T21:52:43.722Z,5.20
2022-09-12T21:55:15.003Z,5.10
2022-09-12T21:57:45.285Z,6.00
2022-09-12T22:00:17.543Z,6.30
2022-09-12T22:02:48.092Z,5.60
2022-09-12T22:05:21.228Z,5.80
2022-09-12T22:07:51.602Z,6.30
2022-09-12T22:10:22.091Z,5.50
2022-09-12T22:12:52.481Z,6.10
2022-09-12T22:15:40.022Z,6.10
2022-09-12T22:18:11.386Z,5.80
2022-09-12T22:20:41.690Z,5.70
2022-09-12T22:23:31.273Z,6.10
2022-09-12T22:26:02.123Z,5.40
2022-09-12T22:28:32.700Z,5.90
2022-09-12T22:31:03.087Z,5.80
2022-09-12T22:33:33.467Z,5.90
2022-09-12T22:36:04.145Z,6.20
2022-09-12T22:38:34.521Z,6.20
2022-09-12T22:41:07.411Z,6.30
2022-09-12T22:46:09.600Z,6.10
2022-09-12T22:48:40.783Z,5.50
2022-09-12T22:51:11.593Z,6.10
2022-09-12T22:53:42.073Z,6.30
2022-09-12T22:56:12.441Z,6.40
2022-09-12T22:58:43.618Z,5.80
2022-09-12T23:01:14.102Z,6.00
2022-09-12T23:03:44.559Z,6.20
2022-09-12T23:06:14.901Z,6.20
2022-09-12T23:08:45.351Z,5.50
2022-09-12T23:11:16.881Z,5.70
2022-09-12T23:13:48.766Z,6.00
2022-09-12T23:16:21.483Z,5.90
2022-09-12T23:21:22.328Z,5.90
2022-09-12T23:23:52.712Z,5.50
2022-09-12T23:26:24.419Z,5.70
2022-09-12T23:28:55.835Z,5.80
2022-09-12T23:31:30.627Z,5.80
2022-09-12T23:34:02.791Z,4.90
2022-09-12T23:36:33.176Z,6.40
2022-09-12T23:39:03.513Z,5.50
2022-09-12T23:41:33.871Z,5.70
2022-09-12T23:44:04.555Z,5.80
2022-09-12T23:46:34.873Z,5.90
2022-09-12T23:49:05.267Z,5.10
2022-09-12T23:51:36.332Z,4.90
2022-09-12T23:54:06.825Z,5.00
2022-09-12T23:56:37.164Z,5.20
2022-09-12T23:59:07.665Z,4.90
